Time;durP1;ratioP1;P1;durP2;ratioP2;P2;SDS_P1;SDS_P2;PMS_P1;PMS_P2;Temp;Humidity;BMP_temperature;BMP_pressure;BME280_temperature;BME280_humidity;BME280_pressure;Samples;Min_cycle;Max_cycle;Signal;HPM_P1;HPM_P2
2021/12/24 00:00:11;;;;;;;;;28.50;27.00;;;;;11.40;67.40;100512.53;2049760;28;45611;-74
2021/12/24 00:01:18;;;;;;;;;28.20;27.60;;;;;11.40;67.22;100512.53;2047016;28;47199;-73
2021/12/24 00:02:18;;;;;;;;;22.40;22.40;;;;;11.39;67.36;100505.50;2048866;28;48163;-74
2021/12/24 00:03:19;;;;;;;;;27.75;26.00;;;;;11.39;67.20;100498.38;2046353;28;48060;-73
2021/12/24 00:04:21;;;;;;;;;30.25;27.75;;;;;11.39;67.34;100502.81;2049422;27;47773;-73
2021/12/24 00:05:24;;;;;;;;;30.20;28.00;;;;;11.39;67.32;100498.38;2050107;27;47551;-73
2021/12/24 00:06:24;;;;;;;;;27.80;27.80;;;;;11.39;67.35;100495.72;2048498;28;48437;-74
2021/12/24 00:07:24;;;;;;;;;27.75;26.25;;;;;11.39;67.30;100500.16;2049790;28;47408;-73
2021/12/24 00:08:25;;;;;;;;;26.00;24.25;;;;;11.38;67.23;100504.63;2048447;28;47036;-73
2021/12/24 00:09:30;;;;;;;;;32.50;28.75;;;;;11.39;67.39;100502.81;2049246;28;47175;-73
2021/12/24 00:10:32;;;;;;;;;30.40;28.60;;;;;11.38;67.46;100501.97;2047424;28;47395;-73
2021/12/24 00:11:35;;;;;;;;;28.60;25.80;;;;;11.39;67.46;100508.16;2049948;28;47729;-73
2021/12/24 00:12:37;;;;;;;;;28.20;27.40;;;;;11.38;67.51;100517.91;2048829;28;48165;-74
2021/12/24 00:13:42;;;;;;;;;26.40;25.00;;;;;11.39;67.46;100511.66;2048383;28;48298;-73
2021/12/24 00:14:48;;;;;;;;;35.00;30.40;;;;;11.39;67.41;100506.34;2049652;28;48363;-73
2021/12/24 00:16:56;;;;;;;;;29.40;27.80;;;;;11.39;67.19;100514.31;2052789;28;47307;-75
2021/12/24 00:18:05;;;;;;;;;26.00;25.20;;;;;11.39;67.50;100511.66;2049600;28;45781;-75
2021/12/24 00:19:36;;;;;;;;;27.80;27.80;;;;;11.39;67.55;100506.34;2049091;28;48529;-73
2021/12/24 00:35:12;;;;;;;;;30.00;28.20;;;;;11.39;67.89;100486.88;2048568;28;47562;-72
2021/12/24 00:36:13;;;;;;;;;27.40;27.00;;;;;11.41;67.80;100485.91;2047894;28;47242;-74
2021/12/24 00:37:16;;;;;;;;;24.25;23.50;;;;;11.42;67.55;100486.78;2048215;28;47047;-74
2021/12/24 00:38:16;;;;;;;;;25.80;24.20;;;;;11.41;67.89;100491.22;2048096;28;48061;-76
2021/12/24 00:39:17;;;;;;;;;30.25;28.75;;;;;11.42;67.65;100495.63;2049082;28;47871;-73
2021/12/24 00:40:19;;;;;;;;;31.25;30.25;;;;;11.43;67.91;100494.75;2049018;28;47156;-72
2021/12/24 00:41:20;;;;;;;;;30.60;30.60;;;;;11.42;67.56;100486.78;2050155;28;48037;-73
2021/12/24 00:42:20;;;;;;;;;26.25;25.50;;;;;11.43;67.95;100485.88;2047992;28;48412;-73
2021/12/24 00:43:21;;;;;;;;;21.25;18.25;;;;;11.44;67.82;100483.19;2049012;28;48378;-74
2021/12/24 00:44:22;;;;;;;;;27.00;27.00;;;;;11.44;67.81;100479.69;2048641;28;47513;-74
2021/12/24 00:45:26;;;;;;;;;29.00;28.00;;;;;11.45;67.81;100479.63;2048296;28;48260;-74
2021/12/24 00:46:27;;;;;;;;;25.20;25.20;;;;;11.44;67.87;100475.22;2049719;28;48091;-73
2021/12/24 00:47:27;;;;;;;;;32.00;29.00;;;;;11.45;67.95;100471.66;2049599;28;47070;-73
2021/12/24 00:48:28;;;;;;;;;27.50;25.00;;;;;11.46;67.93;100468.09;2052662;28;47388;-74
2021/12/24 00:49:28;;;;;;;;;26.25;26.25;;;;;11.47;67.73;100464.50;2049617;28;48227;-74
2021/12/24 00:50:32;;;;;;;;;23.25;23.25;;;;;11.47;67.74;100464.50;2047504;28;47228;-73
2021/12/24 00:52:52;;;;;;;;;29.60;27.20;;;;;11.48;67.82;100460.94;2047879;28;47804;-72
2021/12/24 00:55:03;;;;;;;;;31.50;28.00;;;;;11.49;67.57;100462.66;2047252;28;47160;-73
2021/12/24 00:56:11;;;;;;;;;21.20;21.20;;;;;11.49;67.55;100457.34;2052216;28;47131;-73
2021/12/24 00:57:11;;;;;;;;;29.60;28.00;;;;;11.49;67.57;100460.00;2052523;28;47127;-75
2021/12/24 00:58:12;;;;;;;;;31.75;28.50;;;;;11.49;67.55;100461.78;2047966;28;46996;-73
2021/12/24 00:59:12;;;;;;;;;28.00;26.50;;;;;11.49;67.58;100454.69;2047846;28;48062;-71
2021/12/24 01:00:28;;;;;;;;;27.75;26.75;;;;;11.49;67.70;100448.50;2050112;28;48025;-73
2021/12/24 01:01:28;;;;;;;;;29.00;27.20;;;;;11.49;67.47;100448.50;2047918;28;48080;-73
2021/12/24 01:02:29;;;;;;;;;26.25;26.25;;;;;11.49;67.86;100449.38;2051792;28;47178;-74
2021/12/24 01:03:30;;;;;;;;;24.50;23.50;;;;;11.49;67.64;100444.06;2052158;28;48323;-74
2021/12/24 01:04:31;;;;;;;;;30.50;29.75;;;;;11.50;67.50;100436.97;2049542;28;48390;-74
2021/12/24 01:05:33;;;;;;;;;32.20;28.20;;;;;11.51;67.74;100436.03;2049809;28;47282;-73
2021/12/24 01:06:33;;;;;;;;;29.20;29.00;;;;;11.48;67.60;100439.66;2048070;28;47145;-74
2021/12/24 01:07:34;;;;;;;;;32.75;29.00;;;;;11.49;67.69;100430.78;2047801;28;48505;-73
2021/12/24 01:08:35;;;;;;;;;31.75;29.50;;;;;11.50;67.58;100423.69;2047212;28;48102;-73
2021/12/24 01:09:35;;;;;;;;;26.00;25.00;;;;;11.48;67.47;100417.53;2049049;28;47501;-72
2021/12/24 01:10:49;;;;;;;;;34.50;32.00;;;;;11.50;67.51;100415.69;2050872;28;46763;-74
2021/12/24 01:11:53;;;;;;;;;31.40;28.80;;;;;11.49;67.41;100421.94;2051844;28;47522;-72
2021/12/24 01:12:54;;;;;;;;;30.20;27.80;;;;;11.50;67.73;100421.03;2050311;28;47653;-73
2021/12/24 01:13:54;;;;;;;;;28.00;25.50;;;;;11.50;67.72;100419.22;2049219;28;47562;-73
2021/12/24 01:14:55;;;;;;;;;30.50;28.75;;;;;11.50;67.69;100413.03;2049049;28;47343;-72
2021/12/24 01:19:46;;;;;;;;;29.40;27.20;;;;;11.49;67.46;100412.19;2050788;28;47366;-74
2021/12/24 01:20:51;;;;;;;;;27.00;27.00;;;;;11.49;67.59;100412.19;2051582;28;48203;-73
2021/12/24 01:24:07;;;;;;;;;33.00;28.20;;;;;11.49;67.60;100413.97;2046213;28;48181;-73
2021/12/24 01:25:22;;;;;;;;;34.20;31.60;;;;;11.51;67.75;100414.78;2048609;28;47984;-73
2021/12/24 01:26:42;;;;;;;;;33.80;31.20;;;;;11.50;67.80;100407.72;2047136;28;47561;-71
2021/12/24 01:28:15;;;;;;;;;30.20;29.80;;;;;11.48;67.69;100405.13;2045976;28;48600;-73
2021/12/24 01:29:39;;;;;;;;;29.00;26.80;;;;;11.48;67.63;100401.59;2045634;28;47374;-74
2021/12/24 01:38:50;;;;;;;;;30.40;30.40;;;;;11.47;67.75;100422.00;2046967;28;45542;-75
2021/12/24 01:41:05;;;;;;;;;30.00;29.00;;;;;11.46;67.56;100412.28;2048566;28;48570;-74
2021/12/24 01:43:28;;;;;;;;;30.40;28.60;;;;;11.48;67.64;100418.41;2047960;28;49583;-74
2021/12/24 01:44:29;;;;;;;;;34.40;29.80;;;;;11.47;67.61;100421.13;2047477;28;48327;-72
2021/12/24 01:45:34;;;;;;;;;35.80;31.60;;;;;11.48;67.53;100422.84;2046868;28;48275;-73
2021/12/24 01:46:34;;;;;;;;;37.20;33.20;;;;;11.47;67.62;100422.00;2047611;28;47428;-72
2021/12/24 01:47:35;;;;;;;;;34.00;31.25;;;;;11.46;67.72;100417.59;2048288;28;47466;-73
2021/12/24 01:48:36;;;;;;;;;29.00;26.75;;;;;11.47;67.49;100418.47;2045657;28;48028;-73
2021/12/24 01:49:36;;;;;;;;;33.00;29.75;;;;;11.46;67.75;100422.91;2048884;28;47901;-76
2021/12/24 01:50:42;;;;;;;;;33.00;31.25;;;;;11.46;67.85;100422.91;2048245;28;47309;-73
2021/12/24 01:51:42;;;;;;;;;31.80;29.80;;;;;11.47;67.72;100426.44;2047876;28;47651;-73
2021/12/24 01:52:43;;;;;;;;;32.50;32.00;;;;;11.47;67.47;100422.00;2049175;28;47094;-74
2021/12/24 01:53:44;;;;;;;;;29.50;26.50;;;;;11.47;67.57;100424.66;2046367;28;48459;-74
2021/12/24 01:54:46;;;;;;;;;33.25;31.75;;;;;11.47;67.66;100415.81;2048178;28;48106;-74
2021/12/24 01:55:50;;;;;;;;;36.80;31.00;;;;;11.48;67.64;100417.53;2047273;28;48341;-73
2021/12/24 01:56:50;;;;;;;;;35.20;31.60;;;;;11.49;67.67;100420.16;2048520;28;48339;-73
2021/12/24 01:57:51;;;;;;;;;27.25;27.25;;;;;11.49;67.60;100422.81;2048235;28;47278;-72
2021/12/24 01:58:52;;;;;;;;;28.50;28.50;;;;;11.49;67.55;100420.16;2046848;28;48168;-73
2021/12/24 01:59:53;;;;;;;;;32.50;29.75;;;;;11.49;67.41;100413.97;2047992;28;47542;-72
2021/12/24 02:00:56;;;;;;;;;33.00;31.80;;;;;11.50;67.72;100421.88;2049536;28;47516;-73
2021/12/24 02:01:56;;;;;;;;;29.40;28.00;;;;;11.50;67.46;100426.34;2048847;28;48082;-72
2021/12/24 02:02:58;;;;;;;;;34.25;31.00;;;;;11.50;67.48;100419.22;2048334;28;47227;-73
2021/12/24 02:03:59;;;;;;;;;35.20;31.80;;;;;11.50;67.39;100415.69;2049585;28;47982;-72
2021/12/24 02:05:00;;;;;;;;;29.20;28.00;;;;;11.51;67.46;100422.75;2047777;28;48404;-73
2021/12/24 02:06:00;;;;;;;;;31.50;29.50;;;;;11.50;67.31;100418.34;2059701;28;48829;-73
2021/12/24 02:07:01;;;;;;;;;26.50;26.25;;;;;11.50;67.48;100416.56;2049770;28;48252;-73
2021/12/24 02:08:02;;;;;;;;;27.25;25.50;;;;;11.51;67.48;100412.13;2048710;28;47262;-74
2021/12/24 02:09:03;;;;;;;;;24.60;23.00;;;;;11.50;67.35;100418.34;2048052;27;46262;-73
2021/12/24 02:10:06;;;;;;;;;31.00;29.00;;;;;11.51;67.57;100420.09;2049539;28;48090;-73
2021/12/24 02:11:06;;;;;;;;;34.20;31.80;;;;;11.50;67.60;100419.22;2049322;28;48639;-72
2021/12/24 02:12:09;;;;;;;;;35.25;31.25;;;;;11.52;67.41;100423.63;2049257;28;48497;-73
2021/12/24 02:13:13;;;;;;;;;32.60;30.00;;;;;11.51;67.50;100420.09;2047975;28;48679;-72
2021/12/24 02:14:18;;;;;;;;;29.00;27.40;;;;;11.52;67.62;100419.19;2048873;28;48159;-68
2021/12/24 02:15:33;;;;;;;;;33.40;30.40;;;;;11.50;67.44;100415.69;2049567;28;48553;-73
2021/12/24 02:16:58;;;;;;;;;30.40;28.00;;;;;11.52;67.67;100418.31;2051680;28;47169;-74
2021/12/24 02:18:40;;;;;;;;;32.60;30.00;;;;;11.53;67.77;100420.06;2055326;27;48287;-72
2021/12/24 02:29:35;;;;;;;;;31.60;30.40;;;;;11.48;67.61;100388.31;2051359;28;47395;-72
2021/12/24 02:30:36;;;;;;;;;26.00;26.00;;;;;11.49;67.43;100392.72;2030015;28;47459;-73
2021/12/24 02:31:36;;;;;;;;;36.40;31.20;;;;;11.49;67.49;100390.06;2024797;28;48485;-72
2021/12/24 02:32:42;;;;;;;;;24.75;24.75;;;;;11.50;67.43;100391.78;2047569;28;48099;-72
2021/12/24 02:33:43;;;;;;;;;30.40;25.80;;;;;11.49;67.67;100390.06;2047223;28;48349;-75
2021/12/24 02:34:44;;;;;;;;;30.00;28.75;;;;;11.50;67.73;100397.97;2046939;28;47241;-74
2021/12/24 02:35:44;;;;;;;;;32.40;29.20;;;;;11.50;67.45;100400.63;2045568;27;48171;-74
2021/12/24 02:36:45;;;;;;;;;31.25;30.75;;;;;11.52;67.60;100400.56;2048369;28;47058;-74
2021/12/24 02:37:46;;;;;;;;;32.50;31.25;;;;;11.53;67.68;100402.31;2048667;28;47516;-72
2021/12/24 02:38:48;;;;;;;;;32.00;30.20;;;;;11.52;67.75;100394.41;2048626;28;45914;-74
2021/12/24 02:39:49;;;;;;;;;30.80;28.60;;;;;11.53;67.51;100401.44;2048517;28;47501;-74
2021/12/24 02:40:49;;;;;;;;;35.00;31.25;;;;;11.52;67.73;100395.25;2047948;28;48665;-73
2021/12/24 02:41:50;;;;;;;;;35.25;31.25;;;;;11.52;67.67;100384.63;2048264;28;47261;-73
2021/12/24 02:42:54;;;;;;;;;28.50;27.50;;;;;11.52;67.61;100391.75;2047722;27;47093;-72
2021/12/24 02:43:54;;;;;;;;;29.60;28.60;;;;;11.52;67.59;100392.59;2046128;28;48638;-70
2021/12/24 02:44:55;;;;;;;;;26.75;26.25;;;;;11.53;67.56;100390.81;2049239;28;48001;-71
2021/12/24 02:46:05;;;;;;;;;28.75;24.75;;;;;11.53;67.77;100385.50;2046135;28;47184;-73
2021/12/24 02:47:36;;;;;;;;;29.60;27.40;;;;;11.54;67.65;100387.25;2048380;28;48211;-72
2021/12/24 02:48:57;;;;;;;;;24.20;21.80;;;;;11.53;67.62;100389.03;2047825;28;47420;-73
2021/12/24 02:53:57;;;;;;;;;31.00;28.00;;;;;11.55;67.53;100381.88;2046731;28;47542;-72
2021/12/24 02:54:57;;;;;;;;;26.40;26.00;;;;;11.55;67.71;100381.00;2051811;28;48164;-72
2021/12/24 02:55:58;;;;;;;;;24.25;24.00;;;;;11.55;67.70;100384.53;2044675;28;46962;-73
2021/12/24 02:57:07;;;;;;;;;27.50;25.00;;;;;11.56;67.48;100377.44;2052794;28;47328;-73
2021/12/24 02:58:07;;;;;;;;;30.80;29.40;;;;;11.55;67.46;100379.22;2050563;28;47386;-74
2021/12/24 02:59:12;;;;;;;;;30.50;27.75;;;;;11.56;67.41;100381.00;2049657;28;48023;-74
2021/12/24 03:00:20;;;;;;;;;27.60;26.80;;;;;11.57;67.38;100384.50;2049682;28;47540;-75
2021/12/24 03:01:24;;;;;;;;;28.40;26.20;;;;;11.56;67.33;100383.66;2049258;28;48268;-73
2021/12/24 03:02:26;;;;;;;;;25.80;25.00;;;;;11.56;67.43;100383.66;2048584;28;47582;-73
2021/12/24 03:03:26;;;;;;;;;20.60;18.60;;;;;11.56;67.45;100388.06;2049563;28;47055;-72
2021/12/24 03:04:27;;;;;;;;;29.00;27.75;;;;;11.56;67.51;100382.75;2049343;28;48553;-74
2021/12/24 03:05:28;;;;;;;;;31.00;30.00;;;;;11.55;67.52;100381.00;2047175;28;46748;-73
2021/12/24 03:06:42;;;;;;;;;32.75;29.25;;;;;11.57;67.40;100384.50;2050247;28;48499;-73
2021/12/24 03:07:43;;;;;;;;;32.20;29.80;;;;;11.56;67.59;100382.75;2051817;28;47354;-73
2021/12/24 03:08:43;;;;;;;;;31.75;29.50;;;;;11.55;67.43;100381.88;2052327;27;47838;-73
2021/12/24 03:09:44;;;;;;;;;30.00;29.25;;;;;11.55;67.71;100386.31;2048623;28;48015;-72
2021/12/24 03:10:45;;;;;;;;;29.50;27.50;;;;;11.55;67.64;100381.00;2049680;28;48020;-73
2021/12/24 03:11:48;;;;;;;;;29.75;29.00;;;;;11.53;67.64;100383.72;2049869;28;47564;-74
2021/12/24 03:12:51;;;;;;;;;36.60;30.00;;;;;11.54;67.52;100381.94;2048972;28;47504;-74
2021/12/24 03:13:53;;;;;;;;;25.00;25.00;;;;;11.54;67.58;100384.59;2047613;28;47494;-73
2021/12/24 03:14:54;;;;;;;;;28.60;27.80;;;;;11.53;67.69;100381.06;2049940;28;48156;-73
2021/12/24 03:15:57;;;;;;;;;27.75;26.00;;;;;11.53;67.62;100380.19;2048076;28;47577;-71
2021/12/24 03:17:00;;;;;;;;;30.20;30.20;;;;;11.53;67.71;100377.53;2051597;28;47238;-72
2021/12/24 03:18:01;;;;;;;;;27.00;26.80;;;;;11.53;67.72;100380.19;2046168;28;47429;-73
2021/12/24 03:19:03;;;;;;;;;31.50;25.00;;;;;11.52;67.56;100374.00;2049794;28;48024;-74
2021/12/24 03:20:08;;;;;;;;;33.00;30.60;;;;;11.53;67.72;100370.44;2055478;28;47026;-73
2021/12/24 03:23:42;;;;;;;;;27.20;25.60;;;;;11.55;67.66;100370.38;2051509;28;48151;-73
2021/12/24 03:24:43;;;;;;;;;29.80;28.40;;;;;11.55;67.51;100368.59;2052821;28;47321;-73
2021/12/24 03:25:43;;;;;;;;;31.00;28.75;;;;;11.56;67.59;100369.44;2049188;28;47625;-75
2021/12/24 03:26:47;;;;;;;;;28.25;26.75;;;;;11.56;67.35;100369.44;2049659;28;47671;-72
2021/12/24 03:27:48;;;;;;;;;26.20;26.20;;;;;11.57;67.72;100371.22;2048820;28;48081;-73
2021/12/24 03:28:48;;;;;;;;;29.50;27.50;;;;;11.56;67.69;100370.34;2050115;28;47624;-73
2021/12/24 03:29:50;;;;;;;;;32.25;26.50;;;;;11.56;67.46;100362.38;2048986;28;48010;-73
2021/12/24 03:30:50;;;;;;;;;26.80;25.40;;;;;11.56;67.43;100365.03;2051753;28;48040;-72
2021/12/24 03:31:51;;;;;;;;;26.50;25.50;;;;;11.57;67.38;100365.91;2052031;27;47370;-72
2021/12/24 03:32:51;;;;;;;;;28.00;28.00;;;;;11.58;67.43;100367.66;2052053;28;48797;-72
2021/12/24 03:33:53;;;;;;;;;28.75;26.75;;;;;11.58;67.63;100365.00;2054619;28;47270;-72
2021/12/24 03:34:56;;;;;;;;;30.20;29.00;;;;;11.58;67.49;100365.84;2049058;28;47676;-72
2021/12/24 03:35:57;;;;;;;;;27.50;24.50;;;;;11.59;67.63;100362.28;2049111;28;47854;-73
2021/12/24 03:36:57;;;;;;;;;25.75;25.75;;;;;11.58;67.48;100355.22;2053587;27;48073;-72
2021/12/24 03:37:58;;;;;;;;;30.00;29.00;;;;;11.59;67.53;100356.09;2051343;28;47704;-71
2021/12/24 03:38:58;;;;;;;;;30.75;30.00;;;;;11.59;67.44;100356.09;2052975;28;47969;-71
2021/12/24 03:39:59;;;;;;;;;28.75;28.50;;;;;11.59;67.57;100358.75;2050181;28;47933;-73
2021/12/24 03:40:59;;;;;;;;;25.25;23.75;;;;;11.58;67.39;100344.59;2049862;28;47710;-73
2021/12/24 03:42:01;;;;;;;;;29.00;27.00;;;;;11.59;67.32;100351.66;2049092;28;46381;-71
2021/12/24 03:43:02;;;;;;;;;27.60;26.60;;;;;11.59;67.51;100353.44;2048028;28;47167;-72
2021/12/24 03:44:04;;;;;;;;;29.50;24.50;;;;;11.59;67.30;100356.09;2035615;28;48139;-72
2021/12/24 03:45:23;;;;;;;;;31.00;28.20;;;;;11.58;67.58;100352.56;2041655;28;47286;-73
2021/12/24 03:46:33;;;;;;;;;29.40;28.80;;;;;11.59;67.54;100348.13;2047570;28;47096;-72
2021/12/24 03:47:38;;;;;;;;;29.40;27.20;;;;;11.58;67.52;100349.03;2047806;28;45289;-74
2021/12/24 03:48:53;;;;;;;;;32.00;28.00;;;;;11.57;67.52;100339.34;2049966;28;47589;-72
2021/12/24 03:50:03;;;;;;;;;29.00;28.20;;;;;11.58;67.61;100343.72;2048584;28;47747;-73
2021/12/24 03:55:58;;;;;;;;;7.40;5.40;;;;;11.56;67.64;100346.44;2048473;28;48588;-74
2021/12/24 03:56:58;;;;;;;;;26.50;25.50;;;;;11.57;67.41;100355.28;2050789;27;47363;-73
2021/12/24 03:57:59;;;;;;;;;26.75;25.75;;;;;11.56;67.51;100348.19;2047385;28;47207;-73
2021/12/24 03:59:00;;;;;;;;;31.75;28.25;;;;;11.56;67.54;100349.09;2050943;27;48079;-73
2021/12/24 04:00:12;;;;;;;;;29.75;26.75;;;;;11.56;67.53;100334.91;2049752;28;48157;-71
2021/12/24 04:01:13;;;;;;;;;26.40;25.60;;;;;11.56;67.89;100333.16;2048193;28;47914;-72
2021/12/24 04:02:13;;;;;;;;;31.00;28.50;;;;;11.56;67.57;100332.25;2052725;28;48712;-72
2021/12/24 04:03:14;;;;;;;;;29.75;29.50;;;;;11.55;67.50;100331.38;2052527;28;48574;-71
2021/12/24 04:04:14;;;;;;;;;38.50;32.50;;;;;11.57;67.55;100331.34;2050408;28;48118;-71
2021/12/24 04:05:15;;;;;;;;;29.50;27.75;;;;;11.57;67.65;100328.69;2049157;27;48050;-73
2021/12/24 04:06:16;;;;;;;;;27.00;24.40;;;;;11.57;67.69;100326.03;2049590;28;47520;-72
2021/12/24 04:07:17;;;;;;;;;26.75;26.25;;;;;11.57;67.51;100321.59;2052532;28;48176;-72
2021/12/24 04:08:18;;;;;;;;;33.40;31.40;;;;;11.57;67.72;100324.25;2049492;28;48475;-72
2021/12/24 04:09:20;;;;;;;;;29.75;29.75;;;;;11.57;67.61;100318.94;2051581;28;48756;-72
2021/12/24 04:10:32;;;;;;;;;29.00;27.80;;;;;11.58;67.46;100327.78;2051995;28;48151;-73
2021/12/24 04:11:33;;;;;;;;;36.20;30.00;;;;;11.57;67.49;100321.59;2048421;28;47368;-72
2021/12/24 04:12:35;;;;;;;;;26.40;26.00;;;;;11.58;67.70;100325.13;2051086;27;48485;-73
2021/12/24 04:13:36;;;;;;;;;31.20;29.80;;;;;11.58;67.57;100317.16;2047425;28;48134;-71
2021/12/24 04:14:36;;;;;;;;;28.00;27.00;;;;;11.57;67.77;100310.09;2051452;28;47163;-73
2021/12/24 04:15:38;;;;;;;;;27.50;27.25;;;;;11.58;67.50;100309.19;2049991;28;47033;-73
2021/12/24 04:16:38;;;;;;;;;33.40;29.20;;;;;11.57;67.58;100310.09;2052694;28;48370;-73
2021/12/24 04:17:41;;;;;;;;;27.00;25.50;;;;;11.57;67.56;100302.13;2048350;28;48132;-71
2021/12/24 04:25:04;;;;;;;;;31.60;29.40;;;;;11.58;67.74;100299.41;2049377;28;48265;-72
2021/12/24 04:26:04;;;;;;;;;28.75;28.50;;;;;11.58;67.56;100301.22;2049660;28;47538;-73
2021/12/24 04:27:05;;;;;;;;;27.00;25.50;;;;;11.58;67.66;100295.88;2050207;28;45952;-73
2021/12/24 04:28:05;;;;;;;;;27.00;26.00;;;;;11.59;67.34;100294.97;2048361;28;47790;-74
2021/12/24 04:29:09;;;;;;;;;29.80;28.00;;;;;11.59;67.47;100287.88;2051758;28;47562;-72
2021/12/24 04:30:17;;;;;;;;;29.25;29.25;;;;;11.59;67.54;100289.66;2049929;28;48404;-73
2021/12/24 04:31:27;;;;;;;;;23.20;23.20;;;;;11.59;67.54;100285.22;2048380;28;46981;-74
2021/12/24 04:32:46;;;;;;;;;28.80;28.20;;;;;11.59;67.14;100292.31;2059989;27;47173;-73
2021/12/24 04:33:49;;;;;;;;;31.00;30.20;;;;;11.60;67.46;100289.59;2057399;28;47281;-73
2021/12/24 04:34:51;;;;;;;;;29.40;27.60;;;;;11.59;67.40;100281.69;2051830;28;46341;-74
2021/12/24 04:37:57;;;;;;;;;24.40;24.40;;;;;11.60;67.66;100273.66;2054729;28;48340;-73
2021/12/24 04:38:58;;;;;;;;;23.60;21.60;;;;;11.59;67.39;100273.72;2046885;28;47096;-73
2021/12/24 04:51:34;;;;;;;;;28.80;27.80;;;;;11.59;67.85;100277.22;2049745;28;48791;-73
2021/12/24 04:53:11;;;;;;;;;26.00;25.20;;;;;11.59;67.73;100279.88;2047192;28;47313;-73
2021/12/24 05:03:03;;;;;;;;;30.00;26.60;;;;;11.61;67.82;100271.88;2048965;28;48569;-73
2021/12/24 05:04:05;;;;;;;;;30.60;27.80;;;;;11.61;67.80;100267.41;2058709;27;47870;-74
2021/12/24 05:05:20;;;;;;;;;27.00;25.60;;;;;11.60;68.04;100271.00;2049991;28;47290;-73
2021/12/24 05:07:55;;;;;;;;;28.50;24.25;;;;;11.62;67.85;100262.97;2047376;28;48180;-73
2021/12/24 05:09:05;;;;;;;;;30.80;29.40;;;;;11.62;67.99;100265.63;2047384;28;48164;-73
2021/12/24 05:10:07;;;;;;;;;34.00;30.40;;;;;11.63;68.00;100264.69;2049341;28;48374;-72
2021/12/24 05:11:10;;;;;;;;;25.40;24.20;;;;;11.63;67.90;100273.53;2057207;27;48353;-72
2021/12/24 05:12:11;;;;;;;;;28.40;27.40;;;;;11.63;67.91;100276.19;2056474;27;48214;-73
2021/12/24 05:13:14;;;;;;;;;29.00;28.50;;;;;11.64;68.18;100277.94;2048340;28;47249;-73
2021/12/24 05:14:15;;;;;;;;;27.20;26.80;;;;;11.64;67.88;100269.97;2048763;28;48325;-72
2021/12/24 05:15:18;;;;;;;;;24.20;23.60;;;;;11.64;67.96;100277.06;2049056;28;47925;-72
2021/12/24 05:16:24;;;;;;;;;28.20;25.40;;;;;11.64;68.24;100274.41;2047476;28;47620;-73
2021/12/24 05:17:32;;;;;;;;;28.20;25.60;;;;;11.64;67.87;100275.28;2052429;28;48430;-71
2021/12/24 05:22:33;;;;;;;;;29.80;28.80;;;;;11.66;68.00;100261.94;2047756;28;47145;-74
2021/12/24 05:23:33;;;;;;;;;28.60;27.00;;;;;11.66;67.97;100273.44;2048390;28;48095;-74
2021/12/24 05:24:34;;;;;;;;;25.75;25.00;;;;;11.64;67.82;100256.69;2051414;28;47473;-73
2021/12/24 05:25:42;;;;;;;;;27.00;25.00;;;;;11.66;67.89;100259.28;2050711;28;47256;-72
2021/12/24 05:26:45;;;;;;;;;25.80;24.20;;;;;11.65;68.04;100253.09;2048855;28;48970;-73
2021/12/24 05:27:46;;;;;;;;;27.40;27.40;;;;;11.67;67.96;100264.53;2047891;28;47119;-73
2021/12/24 05:28:46;;;;;;;;;30.50;29.25;;;;;11.67;67.91;100261.00;2047713;28;47605;-73
2021/12/24 05:29:47;;;;;;;;;28.75;27.00;;;;;11.66;67.87;100260.16;2046880;28;47144;-73
2021/12/24 05:30:47;;;;;;;;;32.50;28.75;;;;;11.66;68.49;100259.28;2046351;28;48156;-71
2021/12/24 05:31:49;;;;;;;;;26.50;25.25;;;;;11.67;67.94;100255.69;2051316;28;48376;-73
2021/12/24 05:32:50;;;;;;;;;29.40;26.00;;;;;11.66;67.78;100254.81;2048564;28;47316;-73
2021/12/24 05:33:51;;;;;;;;;33.00;30.60;;;;;11.67;67.97;100251.25;2047251;28;48109;-73
2021/12/24 05:34:52;;;;;;;;;27.40;25.80;;;;;11.67;68.08;100259.22;2047603;28;47403;-73
2021/12/24 05:35:52;;;;;;;;;33.25;29.75;;;;;11.66;68.23;100260.16;2048189;28;49533;-73
2021/12/24 05:36:53;;;;;;;;;26.25;26.25;;;;;11.68;68.22;100258.31;2048897;28;48045;-74
2021/12/24 05:37:53;;;;;;;;;28.50;26.50;;;;;11.68;67.95;100252.97;2048417;28;47335;-73
2021/12/24 05:38:53;;;;;;;;;32.50;29.00;;;;;11.69;68.00;100252.09;2048466;28;48432;-73
2021/12/24 05:39:54;;;;;;;;;24.00;23.75;;;;;11.68;68.13;100242.34;2048076;28;48209;-74
2021/12/24 05:40:54;;;;;;;;;25.75;25.75;;;;;11.70;68.05;100248.50;2049617;28;47595;-73
2021/12/24 05:41:55;;;;;;;;;25.25;25.25;;;;;11.69;67.89;100249.44;2047479;28;47523;-74
2021/12/24 05:42:55;;;;;;;;;28.75;26.25;;;;;11.70;68.18;100248.50;2046794;28;48171;-72
2021/12/24 05:43:58;;;;;;;;;25.50;25.25;;;;;11.71;68.09;100249.38;2048872;28;48004;-73
2021/12/24 05:45:04;;;;;;;;;26.20;26.20;;;;;11.72;68.12;100259.09;2048026;28;47365;-73
2021/12/24 05:46:04;;;;;;;;;23.40;23.40;;;;;11.73;68.02;100250.19;2047390;28;47830;-73
2021/12/24 05:47:05;;;;;;;;;28.00;27.25;;;;;11.72;68.20;100248.47;2049705;28;48026;-73
2021/12/24 05:48:05;;;;;;;;;22.25;17.50;;;;;11.72;68.26;100251.13;2047159;28;47160;-72
2021/12/24 05:49:06;;;;;;;;;27.00;25.00;;;;;11.72;68.22;100251.97;2059521;28;46185;-73
2021/12/24 05:50:07;;;;;;;;;26.50;25.25;;;;;11.72;68.29;100251.97;2050489;28;48833;-73
2021/12/24 05:51:09;;;;;;;;;25.50;24.00;;;;;11.73;68.30;100247.53;2047732;27;47975;-74
2021/12/24 05:52:12;;;;;;;;;27.40;26.40;;;;;11.72;68.11;100253.78;2054131;28;47674;-71
2021/12/24 05:53:12;;;;;;;;;27.00;24.80;;;;;11.72;68.35;100253.78;2053078;28;47943;-73
2021/12/24 05:54:13;;;;;;;;;26.00;26.00;;;;;11.73;68.42;100255.50;2052422;28;47322;-73
2021/12/24 05:55:13;;;;;;;;;29.75;23.50;;;;;11.73;68.20;100255.50;2048587;28;48061;-72
2021/12/24 05:56:14;;;;;;;;;25.75;25.75;;;;;11.74;68.43;100257.25;2054493;28;47982;-74
2021/12/24 05:57:14;;;;;;;;;27.50;27.50;;;;;11.74;68.54;100257.25;2049020;28;47379;-73
2021/12/24 05:58:14;;;;;;;;;34.25;29.75;;;;;11.74;68.22;100258.13;2052785;28;47498;-73
2021/12/24 05:59:15;;;;;;;;;28.00;24.75;;;;;11.74;68.19;100260.78;2051139;28;47432;-74
2021/12/24 06:00:16;;;;;;;;;27.75;25.00;;;;;11.74;68.38;100258.13;2047248;28;48200;-73
2021/12/24 06:01:16;;;;;;;;;27.25;27.25;;;;;11.75;68.43;100264.28;2047788;28;47546;-72
2021/12/24 06:02:17;;;;;;;;;24.75;22.25;;;;;11.75;68.31;100266.94;2047803;28;48365;-74
2021/12/24 06:03:18;;;;;;;;;26.75;25.00;;;;;11.76;68.35;100266.03;2050681;28;48710;-71
2021/12/24 06:04:18;;;;;;;;;32.25;29.25;;;;;11.75;68.37;100274.94;2051738;28;48781;-72
2021/12/24 06:05:18;;;;;;;;;33.75;32.00;;;;;11.75;68.43;100272.28;2047997;28;48491;-72
2021/12/24 06:06:19;;;;;;;;;32.75;29.00;;;;;11.75;68.44;100270.47;2046682;28;48209;-72
2021/12/24 06:07:19;;;;;;;;;28.75;27.00;;;;;11.75;68.52;100275.78;2059355;28;46325;-72
2021/12/24 06:08:20;;;;;;;;;27.25;25.50;;;;;11.75;68.44;100280.25;2048186;28;47574;-73
2021/12/24 06:09:20;;;;;;;;;29.75;28.00;;;;;11.73;68.60;100274.97;2049748;28;48692;-72
2021/12/24 06:10:21;;;;;;;;;29.75;27.75;;;;;11.75;68.52;100274.94;2051099;28;47940;-76
2021/12/24 06:11:21;;;;;;;;;26.50;23.75;;;;;11.74;68.43;100273.19;2048675;28;47560;-74
2021/12/24 06:12:21;;;;;;;;;28.75;27.25;;;;;11.74;68.65;100279.38;2046238;28;48190;-72
2021/12/24 06:13:27;;;;;;;;;30.50;29.75;;;;;11.74;68.43;100275.84;2048561;28;48307;-71
2021/12/24 06:14:28;;;;;;;;;24.80;22.20;;;;;11.73;68.50;100280.31;2045619;28;45693;-72
2021/12/24 06:15:28;;;;;;;;;27.75;27.50;;;;;11.72;68.46;100278.56;2048500;28;48572;-73
2021/12/24 06:16:29;;;;;;;;;27.75;25.75;;;;;11.73;68.51;100288.28;2046154;28;48052;-71
2021/12/24 06:17:30;;;;;;;;;28.50;24.25;;;;;11.72;68.67;100275.03;2048034;28;47522;-73